sensor_id;sensor_type;location;lat;lon;timestamp;pressure;altitude;pressure_sealevel;temperature;humidity
77725;BME280;66892;53.236;6.550;2023-04-19T00:01:34;103206.34;;;8.02;75.05
77725;BME280;66892;53.236;6.550;2023-04-19T00:04:00;103195.69;;;7.99;74.57
77725;BME280;66892;53.236;6.550;2023-04-19T00:06:27;103194.41;;;7.91;74.82
77725;BME280;66892;53.236;6.550;2023-04-19T00:08:55;103198.72;;;7.89;74.49
77725;BME280;66892;53.236;6.550;2023-04-19T00:11:21;103202.31;;;7.91;74.37
77725;BME280;66892;53.236;6.550;2023-04-19T00:13:47;103195.53;;;7.96;73.68
77725;BME280;66892;53.236;6.550;2023-04-19T00:16:15;103201.50;;;7.92;73.79
77725;BME280;66892;53.236;6.550;2023-04-19T00:18:41;103205.03;;;7.92;73.54
77725;BME280;66892;53.236;6.550;2023-04-19T00:21:07;103205.88;;;7.91;73.04
77725;BME280;66892;53.236;6.550;2023-04-19T00:23:33;103199.97;;;7.97;72.92
77725;BME280;66892;53.236;6.550;2023-04-19T00:26:01;103202.03;;;7.85;73.47
77725;BME280;66892;53.236;6.550;2023-04-19T00:28:27;103207.53;;;7.89;73.66
77725;BME280;66892;53.236;6.550;2023-04-19T00:30:53;103208.41;;;7.90;74.03
77725;BME280;66892;53.236;6.550;2023-04-19T00:33:21;103207.59;;;7.91;73.95
77725;BME280;66892;53.236;6.550;2023-04-19T00:35:47;103215.22;;;7.85;74.21
77725;BME280;66892;53.236;6.550;2023-04-19T00:38:13;103213.97;;;7.77;74.32
77725;BME280;66892;53.236;6.550;2023-04-19T00:40:39;103197.56;;;7.82;73.64
77725;BME280;66892;53.236;6.550;2023-04-19T00:43:05;103211.00;;;7.88;73.04
77725;BME280;66892;53.236;6.550;2023-04-19T00:45:31;103219.53;;;7.83;73.27
77725;BME280;66892;53.236;6.550;2023-04-19T00:47:59;103218.53;;;7.81;73.52
77725;BME280;66892;53.236;6.550;2023-04-19T00:50:27;103212.34;;;7.80;73.49
77725;BME280;66892;53.236;6.550;2023-04-19T00:52:54;103214.19;;;7.81;73.45
77725;BME280;66892;53.236;6.550;2023-04-19T00:55:21;103212.09;;;7.74;73.96
77725;BME280;66892;53.236;6.550;2023-04-19T00:57:47;103212.28;;;7.60;74.83
77725;BME280;66892;53.236;6.550;2023-04-19T01:00:14;103218.56;;;7.44;75.56
77725;BME280;66892;53.236;6.550;2023-04-19T01:02:40;103212.75;;;7.32;76.54
77725;BME280;66892;53.236;6.550;2023-04-19T01:05:07;103213.03;;;7.20;77.38
77725;BME280;66892;53.236;6.550;2023-04-19T01:07:34;103227.47;;;7.11;78.61
77725;BME280;66892;53.236;6.550;2023-04-19T01:10:00;103216.91;;;7.09;79.64
77725;BME280;66892;53.236;6.550;2023-04-19T01:12:26;103223.63;;;7.04;79.89
77725;BME280;66892;53.236;6.550;2023-04-19T01:14:52;103219.00;;;6.99;80.55
77725;BME280;66892;53.236;6.550;2023-04-19T01:17:19;103212.22;;;6.86;81.50
77725;BME280;66892;53.236;6.550;2023-04-19T01:19:45;103220.41;;;6.92;81.74
77725;BME280;66892;53.236;6.550;2023-04-19T01:22:15;103214.25;;;6.92;82.34
77725;BME280;66892;53.236;6.550;2023-04-19T01:24:41;103215.53;;;6.82;82.90
77725;BME280;66892;53.236;6.550;2023-04-19T01:27:07;103225.59;;;6.73;83.14
77725;BME280;66892;53.236;6.550;2023-04-19T01:29:33;103228.72;;;6.66;83.47
77725;BME280;66892;53.236;6.550;2023-04-19T01:31:59;103229.47;;;6.63;83.82
77725;BME280;66892;53.236;6.550;2023-04-19T01:34:25;103228.41;;;6.60;83.97
77725;BME280;66892;53.236;6.550;2023-04-19T01:36:52;103223.00;;;6.57;83.92
77725;BME280;66892;53.236;6.550;2023-04-19T01:39:19;103225.38;;;6.52;84.23
77725;BME280;66892;53.236;6.550;2023-04-19T01:41:46;103224.72;;;6.56;83.64
77725;BME280;66892;53.236;6.550;2023-04-19T01:44:12;103223.97;;;6.59;83.52
77725;BME280;66892;53.236;6.550;2023-04-19T01:46:38;103230.59;;;6.51;83.53
77725;BME280;66892;53.236;6.550;2023-04-19T01:49:04;103232.06;;;6.46;83.87
77725;BME280;66892;53.236;6.550;2023-04-19T01:51:30;103223.75;;;6.54;82.35
77725;BME280;66892;53.236;6.550;2023-04-19T01:53:56;103229.78;;;6.52;82.55
77725;BME280;66892;53.236;6.550;2023-04-19T01:56:24;103234.59;;;6.60;81.39
77725;BME280;66892;53.236;6.550;2023-04-19T01:58:50;103231.75;;;6.73;79.64
77725;BME280;66892;53.236;6.550;2023-04-19T02:01:16;103230.75;;;6.71;79.03
77725;BME280;66892;53.236;6.550;2023-04-19T02:03:42;103224.28;;;6.65;79.10
77725;BME280;66892;53.236;6.550;2023-04-19T02:06:09;103229.53;;;6.65;78.66
77725;BME280;66892;53.236;6.550;2023-04-19T02:08:36;103232.03;;;6.62;78.53
77725;BME280;66892;53.236;6.550;2023-04-19T02:11:05;103232.72;;;6.58;77.97
77725;BME280;66892;53.236;6.550;2023-04-19T02:13:33;103231.81;;;6.57;77.43
77725;BME280;66892;53.236;6.550;2023-04-19T02:15:59;103230.75;;;6.54;76.39
77725;BME280;66892;53.236;6.550;2023-04-19T02:18:27;103226.28;;;6.53;76.28
77725;BME280;66892;53.236;6.550;2023-04-19T02:20:54;103230.00;;;6.56;75.21
77725;BME280;66892;53.236;6.550;2023-04-19T02:23:20;103220.38;;;6.57;74.17
77725;BME280;66892;53.236;6.550;2023-04-19T02:25:46;103219.97;;;6.49;73.95
77725;BME280;66892;53.236;6.550;2023-04-19T02:28:12;103227.31;;;6.55;72.39
77725;BME280;66892;53.236;6.550;2023-04-19T02:30:40;103226.28;;;6.53;71.24
77725;BME280;66892;53.236;6.550;2023-04-19T02:33:06;103215.28;;;6.60;69.05
77725;BME280;66892;53.236;6.550;2023-04-19T02:35:32;103224.44;;;6.68;67.29
77725;BME280;66892;53.236;6.550;2023-04-19T02:37:59;103233.97;;;6.66;67.51
77725;BME280;66892;53.236;6.550;2023-04-19T02:40:25;103225.84;;;6.77;65.61
77725;BME280;66892;53.236;6.550;2023-04-19T02:42:51;103225.59;;;6.90;63.92
77725;BME280;66892;53.236;6.550;2023-04-19T02:45:17;103232.28;;;6.84;64.38
77725;BME280;66892;53.236;6.550;2023-04-19T02:47:44;103236.09;;;6.73;64.99
77725;BME280;66892;53.236;6.550;2023-04-19T02:50:11;103239.25;;;6.66;64.82
77725;BME280;66892;53.236;6.550;2023-04-19T02:52:37;103239.84;;;6.60;65.50
77725;BME280;66892;53.236;6.550;2023-04-19T02:55:05;103233.44;;;6.55;64.94
77725;BME280;66892;53.236;6.550;2023-04-19T02:57:31;103236.66;;;6.50;65.88
77725;BME280;66892;53.236;6.550;2023-04-19T02:59:57;103231.84;;;6.41;66.53
77725;BME280;66892;53.236;6.550;2023-04-19T03:02:24;103236.94;;;6.38;65.98
77725;BME280;66892;53.236;6.550;2023-04-19T03:04:51;103240.88;;;6.30;66.54
77725;BME280;66892;53.236;6.550;2023-04-19T03:07:20;103235.25;;;6.22;67.05
77725;BME280;66892;53.236;6.550;2023-04-19T03:09:46;103232.03;;;6.12;67.18
77725;BME280;66892;53.236;6.550;2023-04-19T03:12:12;103229.56;;;6.15;66.47
77725;BME280;66892;53.236;6.550;2023-04-19T03:14:38;103228.94;;;6.03;67.81
77725;BME280;66892;53.236;6.550;2023-04-19T03:17:04;103228.19;;;5.89;68.92
77725;BME280;66892;53.236;6.550;2023-04-19T03:19:30;103235.28;;;5.75;69.95
77725;BME280;66892;53.236;6.550;2023-04-19T03:21:57;103230.69;;;5.55;70.99
77725;BME280;66892;53.236;6.550;2023-04-19T03:24:26;103235.94;;;5.55;70.10
77725;BME280;66892;53.236;6.550;2023-04-19T03:26:52;103230.44;;;5.51;70.60
77725;BME280;66892;53.236;6.550;2023-04-19T03:29:18;103228.88;;;5.54;69.71
77725;BME280;66892;53.236;6.550;2023-04-19T03:31:44;103231.84;;;5.60;69.59
77725;BME280;66892;53.236;6.550;2023-04-19T03:34:10;103229.22;;;5.60;69.00
77725;BME280;66892;53.236;6.550;2023-04-19T03:36:37;103228.16;;;5.73;67.92
77725;BME280;66892;53.236;6.550;2023-04-19T03:39:04;103226.50;;;5.75;68.60
77725;BME280;66892;53.236;6.550;2023-04-19T03:41:31;103221.41;;;5.78;67.72
77725;BME280;66892;53.236;6.550;2023-04-19T03:43:57;103226.34;;;5.72;68.13
77725;BME280;66892;53.236;6.550;2023-04-19T03:46:23;103231.94;;;5.62;68.60
77725;BME280;66892;53.236;6.550;2023-04-19T03:48:50;103227.50;;;5.61;68.78
77725;BME280;66892;53.236;6.550;2023-04-19T03:51:17;103232.06;;;5.49;69.84
77725;BME280;66892;53.236;6.550;2023-04-19T03:53:43;103233.47;;;5.27;71.91
77725;BME280;66892;53.236;6.550;2023-04-19T03:56:10;103230.75;;;5.10;72.52
77725;BME280;66892;53.236;6.550;2023-04-19T03:58:36;103245.69;;;4.96;73.47
77725;BME280;66892;53.236;6.550;2023-04-19T04:01:02;103243.25;;;4.85;74.91
77725;BME280;66892;53.236;6.550;2023-04-19T04:03:29;103250.38;;;4.72;75.97
77725;BME280;66892;53.236;6.550;2023-04-19T04:05:56;103249.97;;;4.65;76.10
77725;BME280;66892;53.236;6.550;2023-04-19T04:08:23;103250.28;;;4.56;77.30
77725;BME280;66892;53.236;6.550;2023-04-19T04:10:49;103254.66;;;4.56;77.44
77725;BME280;66892;53.236;6.550;2023-04-19T04:13:16;103254.44;;;4.53;77.25
77725;BME280;66892;53.236;6.550;2023-04-19T04:15:42;103256.72;;;4.47;78.11
77725;BME280;66892;53.236;6.550;2023-04-19T04:18:08;103256.09;;;4.36;77.86
77725;BME280;66892;53.236;6.550;2023-04-19T04:20:34;103252.38;;;4.33;78.35
77725;BME280;66892;53.236;6.550;2023-04-19T04:23:01;103261.66;;;4.28;78.72
77725;BME280;66892;53.236;6.550;2023-04-19T04:25:27;103261.47;;;4.24;79.04
77725;BME280;66892;53.236;6.550;2023-04-19T04:27:53;103263.34;;;4.12;79.65
77725;BME280;66892;53.236;6.550;2023-04-19T04:30:21;103262.53;;;4.13;79.44
77725;BME280;66892;53.236;6.550;2023-04-19T04:32:47;103263.88;;;4.07;79.29
77725;BME280;66892;53.236;6.550;2023-04-19T04:35:15;103263.06;;;4.08;79.64
77725;BME280;66892;53.236;6.550;2023-04-19T04:37:42;103269.84;;;4.04;79.30
77725;BME280;66892;53.236;6.550;2023-04-19T04:40:09;103259.44;;;4.06;78.91
77725;BME280;66892;53.236;6.550;2023-04-19T04:42:36;103257.75;;;4.06;78.72
77725;BME280;66892;53.236;6.550;2023-04-19T04:45:02;103265.06;;;4.12;78.14
77725;BME280;66892;53.236;6.550;2023-04-19T04:47:32;103263.97;;;4.08;78.42
77725;BME280;66892;53.236;6.550;2023-04-19T04:49:58;103266.31;;;4.04;78.84
77725;BME280;66892;53.236;6.550;2023-04-19T04:52:24;103263.88;;;4.07;78.47
77725;BME280;66892;53.236;6.550;2023-04-19T04:54:50;103264.59;;;4.04;78.38
77725;BME280;66892;53.236;6.550;2023-04-19T04:57:16;103266.56;;;4.08;78.38
77725;BME280;66892;53.236;6.550;2023-04-19T04:59:42;103259.94;;;4.13;77.57
77725;BME280;66892;53.236;6.550;2023-04-19T05:02:08;103260.38;;;4.21;76.49
77725;BME280;66892;53.236;6.550;2023-04-19T05:04:37;103261.41;;;4.38;74.99
77725;BME280;66892;53.236;6.550;2023-04-19T05:07:03;103257.44;;;4.44;74.82
77725;BME280;66892;53.236;6.550;2023-04-19T05:09:29;103259.00;;;4.55;73.79
77725;BME280;66892;53.236;6.550;2023-04-19T05:11:55;103255.19;;;4.65;73.00
77725;BME280;66892;53.236;6.550;2023-04-19T05:14:21;103257.44;;;4.73;71.80
77725;BME280;66892;53.236;6.550;2023-04-19T05:16:47;103257.72;;;4.78;71.72
77725;BME280;66892;53.236;6.550;2023-04-19T05:19:13;103253.19;;;4.90;70.22
77725;BME280;66892;53.236;6.550;2023-04-19T05:21:40;103246.47;;;4.95;69.51
77725;BME280;66892;53.236;6.550;2023-04-19T05:24:06;103243.00;;;5.11;67.75
77725;BME280;66892;53.236;6.550;2023-04-19T05:26:34;103245.63;;;5.25;66.86
77725;BME280;66892;53.236;6.550;2023-04-19T05:29:00;103253.78;;;5.46;64.99
77725;BME280;66892;53.236;6.550;2023-04-19T05:31:26;103256.44;;;5.62;63.95
77725;BME280;66892;53.236;6.550;2023-04-19T05:33:52;103257.19;;;5.76;63.08
77725;BME280;66892;53.236;6.550;2023-04-19T05:36:18;103258.16;;;5.78;63.50
77725;BME280;66892;53.236;6.550;2023-04-19T05:38:46;103251.38;;;5.81;63.74
77725;BME280;66892;53.236;6.550;2023-04-19T05:41:12;103252.03;;;5.77;63.83
77725;BME280;66892;53.236;6.550;2023-04-19T05:43:38;103259.66;;;5.73;64.91
77725;BME280;66892;53.236;6.550;2023-04-19T05:46:04;103270.78;;;5.69;66.01
77725;BME280;66892;53.236;6.550;2023-04-19T05:48:30;103272.88;;;5.74;67.31
77725;BME280;66892;53.236;6.550;2023-04-19T05:50:56;103275.31;;;6.02;67.15
77725;BME280;66892;53.236;6.550;2023-04-19T05:53:25;103260.94;;;6.28;65.56
77725;BME280;66892;53.236;6.550;2023-04-19T05:55:52;103273.94;;;6.59;65.79
77725;BME280;66892;53.236;6.550;2023-04-19T05:58:18;103271.06;;;6.88;63.90
77725;BME280;66892;53.236;6.550;2023-04-19T06:00:45;103268.97;;;7.16;62.46
77725;BME280;66892;53.236;6.550;2023-04-19T06:03:11;103267.16;;;7.51;61.10
77725;BME280;66892;53.236;6.550;2023-04-19T06:05:37;103274.25;;;7.71;60.07
77725;BME280;66892;53.236;6.550;2023-04-19T06:08:05;103267.38;;;7.74;58.94
77725;BME280;66892;53.236;6.550;2023-04-19T06:10:31;103280.16;;;7.84;58.45
77725;BME280;66892;53.236;6.550;2023-04-19T06:12:59;103276.91;;;8.09;56.82
77725;BME280;66892;53.236;6.550;2023-04-19T06:15:25;103278.81;;;8.50;56.39
77725;BME280;66892;53.236;6.550;2023-04-19T06:17:51;103280.72;;;8.94;55.56
77725;BME280;66892;53.236;6.550;2023-04-19T06:20:17;103279.50;;;9.07;53.87
77725;BME280;66892;53.236;6.550;2023-04-19T06:22:44;103274.78;;;9.20;53.60
77725;BME280;66892;53.236;6.550;2023-04-19T06:25:10;103277.31;;;9.17;53.37
77725;BME280;66892;53.236;6.550;2023-04-19T06:27:36;103277.47;;;9.22;53.40
77725;BME280;66892;53.236;6.550;2023-04-19T06:30:05;103275.03;;;9.26;52.78
77725;BME280;66892;53.236;6.550;2023-04-19T06:32:31;103277.09;;;9.56;52.99
77725;BME280;66892;53.236;6.550;2023-04-19T06:34:57;103273.88;;;9.63;52.39
77725;BME280;66892;53.236;6.550;2023-04-19T06:37:23;103266.53;;;9.56;52.47
77725;BME280;66892;53.236;6.550;2023-04-19T06:39:49;103269.31;;;9.59;51.21
77725;BME280;66892;53.236;6.550;2023-04-19T06:42:15;103266.09;;;9.89;50.93
77725;BME280;66892;53.236;6.550;2023-04-19T06:44:44;103267.00;;;9.68;51.56
77725;BME280;66892;53.236;6.550;2023-04-19T06:47:12;103265.09;;;9.64;52.01
77725;BME280;66892;53.236;6.550;2023-04-19T06:49:38;103264.84;;;9.58;51.54
77725;BME280;66892;53.236;6.550;2023-04-19T06:52:04;103256.47;;;10.14;50.17
77725;BME280;66892;53.236;6.550;2023-04-19T06:54:29;103257.88;;;10.28;50.08
77725;BME280;66892;53.236;6.550;2023-04-19T06:56:56;103260.63;;;10.54;47.05
77725;BME280;66892;53.236;6.550;2023-04-19T06:59:21;103254.78;;;10.16;45.36
77725;BME280;66892;53.236;6.550;2023-04-19T07:01:48;103259.06;;;9.90;46.01
77725;BME280;66892;53.236;6.550;2023-04-19T07:04:15;103266.88;;;10.33;44.95
77725;BME280;66892;53.236;6.550;2023-04-19T07:06:41;103264.69;;;10.95;44.89
77725;BME280;66892;53.236;6.550;2023-04-19T07:09:07;103255.88;;;11.50;44.11
77725;BME280;66892;53.236;6.550;2023-04-19T07:11:33;103254.13;;;11.50;43.54
77725;BME280;66892;53.236;6.550;2023-04-19T07:14:00;103259.94;;;11.94;43.93
77725;BME280;66892;53.236;6.550;2023-04-19T07:16:26;103262.22;;;11.55;44.58
77725;BME280;66892;53.236;6.550;2023-04-19T07:18:52;103259.91;;;11.10;44.99
77725;BME280;66892;53.236;6.550;2023-04-19T07:21:19;103263.50;;;11.13;45.21
77725;BME280;66892;53.236;6.550;2023-04-19T07:23:45;103254.84;;;11.18;46.05
77725;BME280;66892;53.236;6.550;2023-04-19T07:26:11;103255.38;;;11.90;44.92
77725;BME280;66892;53.236;6.550;2023-04-19T07:28:40;103246.38;;;12.46;43.29
77725;BME280;66892;53.236;6.550;2023-04-19T07:31:06;103237.94;;;12.62;43.24
77725;BME280;66892;53.236;6.550;2023-04-19T07:33:33;103247.41;;;12.51;41.82
77725;BME280;66892;53.236;6.550;2023-04-19T07:35:59;103233.81;;;13.07;40.82
77725;BME280;66892;53.236;6.550;2023-04-19T07:38:26;103239.28;;;12.45;40.29
77725;BME280;66892;53.236;6.550;2023-04-19T07:40:52;103251.28;;;12.63;41.35
77725;BME280;66892;53.236;6.550;2023-04-19T07:43:18;103244.97;;;13.27;38.63
77725;BME280;66892;53.236;6.550;2023-04-19T07:45:44;103241.09;;;13.13;39.00
77725;BME280;66892;53.236;6.550;2023-04-19T07:48:10;103240.28;;;13.17;39.67
77725;BME280;66892;53.236;6.550;2023-04-19T07:50:37;103243.88;;;13.97;37.67
77725;BME280;66892;53.236;6.550;2023-04-19T07:53:03;103240.69;;;14.58;36.01
77725;BME280;66892;53.236;6.550;2023-04-19T07:55:30;103236.91;;;13.23;37.68
77725;BME280;66892;53.236;6.550;2023-04-19T07:57:56;103239.19;;;13.85;36.87
77725;BME280;66892;53.236;6.550;2023-04-19T08:00:22;103240.16;;;13.89;37.36
77725;BME280;66892;53.236;6.550;2023-04-19T08:02:48;103239.72;;;13.67;37.25
77725;BME280;66892;53.236;6.550;2023-04-19T08:05:15;103237.16;;;14.57;35.28
77725;BME280;66892;53.236;6.550;2023-04-19T08:07:42;103233.44;;;14.06;33.97
77725;BME280;66892;53.236;6.550;2023-04-19T08:10:09;103241.06;;;14.33;34.77
77725;BME280;66892;53.236;6.550;2023-04-19T08:12:36;103229.41;;;13.84;34.75
77725;BME280;66892;53.236;6.550;2023-04-19T08:15:04;103233.81;;;14.70;35.28
77725;BME280;66892;53.236;6.550;2023-04-19T08:17:31;103235.53;;;15.18;34.04
77725;BME280;66892;53.236;6.550;2023-04-19T08:19:57;103228.81;;;15.44;33.34
77725;BME280;66892;53.236;6.550;2023-04-19T08:22:23;103215.66;;;15.53;33.23
77725;BME280;66892;53.236;6.550;2023-04-19T08:24:49;103233.03;;;15.30;34.15
77725;BME280;66892;53.236;6.550;2023-04-19T08:27:19;103231.47;;;15.43;32.86
77725;BME280;66892;53.236;6.550;2023-04-19T08:29:46;103223.53;;;14.92;33.91
77725;BME280;66892;53.236;6.550;2023-04-19T08:32:12;103222.88;;;15.06;33.67
77725;BME280;66892;53.236;6.550;2023-04-19T08:34:38;103228.47;;;15.81;33.39
77725;BME280;66892;53.236;6.550;2023-04-19T08:37:05;103219.78;;;15.98;32.57
77725;BME280;66892;53.236;6.550;2023-04-19T08:39:34;103214.78;;;16.26;32.89
77725;BME280;66892;53.236;6.550;2023-04-19T08:42:03;103218.88;;;16.77;31.51
77725;BME280;66892;53.236;6.550;2023-04-19T08:44:31;103221.78;;;17.03;31.48
77725;BME280;66892;53.236;6.550;2023-04-19T08:46:59;103210.59;;;17.55;29.26
77725;BME280;66892;53.236;6.550;2023-04-19T08:49:26;103219.59;;;17.74;29.88
77725;BME280;66892;53.236;6.550;2023-04-19T08:51:53;103218.94;;;15.99;32.29
77725;BME280;66892;53.236;6.550;2023-04-19T08:54:20;103213.19;;;16.42;31.53
77725;BME280;66892;53.236;6.550;2023-04-19T08:56:46;103218.31;;;17.11;30.72
77725;BME280;66892;53.236;6.550;2023-04-19T08:59:12;103211.06;;;16.11;30.55
77725;BME280;66892;53.236;6.550;2023-04-19T09:01:39;103208.97;;;15.25;32.81
77725;BME280;66892;53.236;6.550;2023-04-19T09:04:06;103200.34;;;16.97;31.44
77725;BME280;66892;53.236;6.550;2023-04-19T09:06:34;103201.56;;;17.43;29.69
77725;BME280;66892;53.236;6.550;2023-04-19T09:09:13;103196.47;;;17.86;28.71
77725;BME280;66892;53.236;6.550;2023-04-19T09:11:40;103203.50;;;17.65;29.40
77725;BME280;66892;53.236;6.550;2023-04-19T09:14:07;103201.88;;;17.97;30.12
77725;BME280;66892;53.236;6.550;2023-04-19T09:16:34;103193.13;;;18.74;28.26
77725;BME280;66892;53.236;6.550;2023-04-19T09:19:01;103198.84;;;17.35;28.27
77725;BME280;66892;53.236;6.550;2023-04-19T09:21:29;103192.63;;;17.36;28.38
77725;BME280;66892;53.236;6.550;2023-04-19T09:23:56;103186.53;;;16.47;29.67
77725;BME280;66892;53.236;6.550;2023-04-19T09:26:22;103191.31;;;16.81;30.42
77725;BME280;66892;53.236;6.550;2023-04-19T09:28:55;103191.22;;;18.14;28.62
77725;BME280;66892;53.236;6.550;2023-04-19T09:31:21;103188.63;;;18.52;27.86
77725;BME280;66892;53.236;6.550;2023-04-19T09:33:47;103184.19;;;18.73;26.61
77725;BME280;66892;53.236;6.550;2023-04-19T09:36:25;103171.59;;;19.39;25.43
77725;BME280;66892;53.236;6.550;2023-04-19T09:38:54;103176.97;;;19.36;25.52
77725;BME280;66892;53.236;6.550;2023-04-19T09:41:20;103176.06;;;19.35;25.60
77725;BME280;66892;53.236;6.550;2023-04-19T09:43:46;103159.13;;;19.23;24.31
77725;BME280;66892;53.236;6.550;2023-04-19T09:46:32;103175.16;;;19.55;25.88
77725;BME280;66892;53.236;6.550;2023-04-19T09:49:18;103180.97;;;17.28;26.44
77725;BME280;66892;53.236;6.550;2023-04-19T09:51:49;103166.72;;;17.29;27.22
77725;BME280;66892;53.236;6.550;2023-04-19T09:54:19;103176.06;;;18.29;26.34
77725;BME280;66892;53.236;6.550;2023-04-19T09:56:45;103161.81;;;19.02;24.79
77725;BME280;66892;53.236;6.550;2023-04-19T09:59:12;103143.72;;;19.75;24.25
77725;BME280;66892;53.236;6.550;2023-04-19T10:01:39;103160.06;;;18.70;24.28
77725;BME280;66892;53.236;6.550;2023-04-19T10:04:09;103146.59;;;19.14;25.50
77725;BME280;66892;53.236;6.550;2023-04-19T10:06:36;103145.47;;;19.85;24.31
77725;BME280;66892;53.236;6.550;2023-04-19T10:09:04;103152.91;;;18.75;24.97
77725;BME280;66892;53.236;6.550;2023-04-19T10:11:33;103135.56;;;19.94;23.85
77725;BME280;66892;53.236;6.550;2023-04-19T10:14:06;103143.63;;;19.96;23.02
77725;BME280;66892;53.236;6.550;2023-04-19T10:16:33;103149.22;;;17.98;25.81
77725;BME280;66892;53.236;6.550;2023-04-19T10:19:01;103159.94;;;19.55;24.39
77725;BME280;66892;53.236;6.550;2023-04-19T10:21:28;103129.16;;;20.21;24.22
77725;BME280;66892;53.236;6.550;2023-04-19T10:23:55;103128.16;;;20.36;24.41
77725;BME280;66892;53.236;6.550;2023-04-19T10:26:21;103135.69;;;19.81;24.49
77725;BME280;66892;53.236;6.550;2023-04-19T10:28:48;103121.28;;;19.92;23.87
77725;BME280;66892;53.236;6.550;2023-04-19T10:31:18;103131.59;;;20.58;22.71
77725;BME280;66892;53.236;6.550;2023-04-19T10:33:46;103131.44;;;18.97;25.07
77725;BME280;66892;53.236;6.550;2023-04-19T10:36:14;103125.16;;;20.75;23.38
77725;BME280;66892;53.236;6.550;2023-04-19T10:38:43;103136.66;;;19.60;24.36
77725;BME280;66892;53.236;6.550;2023-04-19T10:41:11;103122.63;;;20.56;23.53
77725;BME280;66892;53.236;6.550;2023-04-19T10:43:40;103117.56;;;20.10;24.29
77725;BME280;66892;53.236;6.550;2023-04-19T10:46:09;103113.34;;;20.91;23.64
77725;BME280;66892;53.236;6.550;2023-04-19T10:48:49;103101.75;;;20.86;23.54
77725;BME280;66892;53.236;6.550;2023-04-19T10:51:20;103120.59;;;20.82;22.88
77725;BME280;66892;53.236;6.550;2023-04-19T10:53:52;103105.59;;;20.57;23.29
77725;BME280;66892;53.236;6.550;2023-04-19T10:56:20;103107.81;;;19.98;22.99
77725;BME280;66892;53.236;6.550;2023-04-19T10:59:11;103101.91;;;18.00;26.07
77725;BME280;66892;53.236;6.550;2023-04-19T11:01:42;103104.69;;;18.56;25.32
77725;BME280;66892;53.236;6.550;2023-04-19T11:04:09;103114.31;;;19.55;24.72
77725;BME280;66892;53.236;6.550;2023-04-19T11:06:36;103086.78;;;18.79;24.79
77725;BME280;66892;53.236;6.550;2023-04-19T11:09:03;103090.38;;;18.73;25.75
77725;BME280;66892;53.236;6.550;2023-04-19T11:11:35;103077.66;;;19.46;25.28
77725;BME280;66892;53.236;6.550;2023-04-19T11:14:02;103078.25;;;20.00;23.99
77725;BME280;66892;53.236;6.550;2023-04-19T11:16:29;103083.06;;;19.40;24.69
77725;BME280;66892;53.236;6.550;2023-04-19T11:18:56;103071.41;;;20.72;24.29
77725;BME280;66892;53.236;6.550;2023-04-19T11:21:22;103063.31;;;22.14;24.13
77725;BME280;66892;53.236;6.550;2023-04-19T11:24:04;103063.19;;;20.84;23.48
77725;BME280;66892;53.236;6.550;2023-04-19T11:26:30;103066.06;;;19.41;24.66
77725;BME280;66892;53.236;6.550;2023-04-19T11:28:56;103060.81;;;21.38;23.08
77725;BME280;66892;53.236;6.550;2023-04-19T11:31:22;103068.88;;;22.05;22.31
77725;BME280;66892;53.236;6.550;2023-04-19T11:33:50;103049.75;;;21.61;22.57
77725;BME280;66892;53.236;6.550;2023-04-19T11:36:17;103048.69;;;20.03;25.09
77725;BME280;66892;53.236;6.550;2023-04-19T11:38:46;103061.13;;;21.14;24.05
77725;BME280;66892;53.236;6.550;2023-04-19T11:41:12;103037.00;;;21.01;24.12
77725;BME280;66892;53.236;6.550;2023-04-19T11:43:38;103032.03;;;21.43;23.32
77725;BME280;66892;53.236;6.550;2023-04-19T11:46:07;103036.81;;;21.20;23.20
77725;BME280;66892;53.236;6.550;2023-04-19T11:48:33;103027.81;;;21.24;24.55
77725;BME280;66892;53.236;6.550;2023-04-19T11:51:00;103034.59;;;21.52;23.54
77725;BME280;66892;53.236;6.550;2023-04-19T11:53:30;103029.72;;;21.16;23.95
77725;BME280;66892;53.236;6.550;2023-04-19T11:56:03;103023.41;;;21.17;24.24
77725;BME280;66892;53.236;6.550;2023-04-19T11:58:31;103031.34;;;21.26;23.67
77725;BME280;66892;53.236;6.550;2023-04-19T12:01:03;103029.59;;;21.25;24.16
77725;BME280;66892;53.236;6.550;2023-04-19T12:03:31;103018.81;;;21.89;23.84
77725;BME280;66892;53.236;6.550;2023-04-19T12:05:58;103013.56;;;21.16;24.23
77725;BME280;66892;53.236;6.550;2023-04-19T12:08:34;103002.13;;;21.63;24.16
77725;BME280;66892;53.236;6.550;2023-04-19T12:11:01;103005.53;;;21.74;23.15
77725;BME280;66892;53.236;6.550;2023-04-19T12:13:28;103009.34;;;20.92;24.99
77725;BME280;66892;53.236;6.550;2023-04-19T12:15:56;103005.41;;;21.22;25.45
77725;BME280;66892;53.236;6.550;2023-04-19T12:18:22;103021.16;;;20.74;25.53
77725;BME280;66892;53.236;6.550;2023-04-19T12:20:50;103014.31;;;21.28;24.62
77725;BME280;66892;53.236;6.550;2023-04-19T12:23:18;103001.56;;;21.41;23.98
77725;BME280;66892;53.236;6.550;2023-04-19T12:25:47;103001.28;;;22.17;24.63
77725;BME280;66892;53.236;6.550;2023-04-19T12:28:14;103002.91;;;22.26;23.27
77725;BME280;66892;53.236;6.550;2023-04-19T12:30:41;102987.06;;;22.08;23.53
77725;BME280;66892;53.236;6.550;2023-04-19T12:33:07;102996.16;;;22.51;25.07
77725;BME280;66892;53.236;6.550;2023-04-19T12:35:34;102993.97;;;21.69;26.86
77725;BME280;66892;53.236;6.550;2023-04-19T12:38:00;102988.81;;;20.83;28.85
77725;BME280;66892;53.236;6.550;2023-04-19T12:40:29;102984.75;;;21.24;29.30
77725;BME280;66892;53.236;6.550;2023-04-19T12:42:57;102987.94;;;19.85;31.20
77725;BME280;66892;53.236;6.550;2023-04-19T12:45:24;102981.38;;;21.03;27.94
77725;BME280;66892;53.236;6.550;2023-04-19T12:47:50;102990.38;;;21.70;27.77
77725;BME280;66892;53.236;6.550;2023-04-19T12:50:16;102976.63;;;21.86;27.70
77725;BME280;66892;53.236;6.550;2023-04-19T12:52:43;102991.72;;;21.98;27.45
77725;BME280;66892;53.236;6.550;2023-04-19T12:55:10;102990.31;;;21.73;27.63